Time;durP1;ratioP1;P1;durP2;ratioP2;P2;SDS_P1;SDS_P2;PMS_P1;PMS_P2;Temp;Humidity;BMP_temperature;BMP_pressure;BME280_temperature;BME280_humidity;BME280_pressure;Samples;Min_cycle;Max_cycle;Signal;HPM_P1;HPM_P2
2021/04/15 00:00:33;;;;;;;6.10;4.67;;;;;;;1.07;100.00;99354.09;3760138;78;44240;-23
2021/04/15 00:05:39;;;;;;;9.23;5.10;;;;;;;0.97;100.00;99352.37;3761972;78;43998;-23
2021/04/15 00:10:48;;;;;;;7.77;4.83;;;;;;;1.26;100.00;99343.40;3666338;80;43988;-25
2021/04/15 00:15:54;;;;;;;7.47;5.40;;;;;;;1.41;100.00;99343.06;3720783;78;43361;-23
2021/04/15 00:21:02;;;;;;;7.23;5.07;;;;;;;1.32;100.00;99344.87;3714100;78;42884;-23
2021/04/15 00:26:11;;;;;;;8.10;5.47;;;;;;;1.07;100.00;99346.13;3678927;79;43452;-23
2021/04/15 00:31:17;;;;;;;7.33;5.33;;;;;;;0.95;100.00;99342.30;3739482;78;43728;-23
2021/04/15 00:36:25;;;;;;;7.77;5.47;;;;;;;0.88;100.00;99338.25;3751358;77;43417;-23
2021/04/15 00:41:32;;;;;;;9.30;5.50;;;;;;;0.82;100.00;99338.08;3745126;77;44035;-25
2021/04/15 00:46:56;;;;;;;6.63;5.23;;;;;;;0.74;100.00;99338.95;3722450;79;43725;-23
2021/04/15 00:52:05;;;;;;;9.50;5.50;;;;;;;0.73;100.00;99337.22;3726408;79;44140;-23
2021/04/15 00:57:15;;;;;;;7.20;5.23;;;;;;;0.70;100.00;99333.39;3710254;80;43928;-24
2021/04/15 01:02:23;;;;;;;7.60;5.60;;;;;;;0.74;100.00;99323.03;3682720;80;44030;-22
2021/04/15 01:07:29;;;;;;;11.07;5.60;;;;;;;0.61;100.00;99322.31;3729036;79;43336;-23
2021/04/15 01:12:43;;;;;;;8.63;6.40;;;;;;;0.66;100.00;99327.38;3711961;80;43513;-25
2021/04/15 01:17:52;;;;;;;9.23;6.67;;;;;;;0.59;100.00;99328.16;3688448;80;43296;-23
2021/04/15 01:23:09;;;;;;;9.37;6.40;;;;;;;0.50;100.00;99326.41;3718957;79;44383;-23
2021/04/15 01:28:19;;;;;;;9.40;6.20;;;;;;;0.55;100.00;99319.95;3712236;80;44075;-23
2021/04/15 01:33:28;;;;;;;8.93;6.17;;;;;;;0.54;100.00;99320.88;3712439;80;43689;-23
2021/04/15 01:38:38;;;;;;;10.43;6.63;;;;;;;0.50;100.00;99314.48;3711933;80;43322;-23
2021/04/15 01:43:47;;;;;;;8.10;6.03;;;;;;;0.48;100.00;99310.59;3626145;81;43519;-23
2021/04/15 01:48:54;;;;;;;9.23;6.30;;;;;;;0.45;100.00;99312.05;3729876;79;42935;-23
2021/04/15 01:54:05;;;;;;;9.73;6.47;;;;;;;0.43;100.00;99312.14;3729498;77;44071;-24
2021/04/15 01:59:14;;;;;;;8.80;6.20;;;;;;;0.40;100.00;99317.59;3728871;79;43770;-24
2021/04/15 02:04:23;;;;;;;9.33;6.57;;;;;;;0.39;100.00;99317.67;3721557;79;44005;-20
2021/04/15 02:09:29;;;;;;;11.57;7.47;;;;;;;0.30;100.00;99318.48;3726754;79;44045;-20
2021/04/15 02:14:38;;;;;;;13.57;8.10;;;;;;;0.18;100.00;99323.05;3731249;79;43565;-21
2021/04/15 02:19:47;;;;;;;12.93;8.13;;;;;;;0.09;100.00;99321.72;3715037;79;44024;-21
2021/04/15 02:24:56;;;;;;;13.17;8.10;;;;;;;0.07;100.00;99324.03;3716476;77;44058;-21
2021/04/15 02:30:10;;;;;;;15.37;8.60;;;;;;;0.06;100.00;99321.02;3713381;79;44026;-21
2021/04/15 02:35:20;;;;;;;13.33;9.13;;;;;;;0.04;100.00;99318.90;3711624;77;43439;-21
2021/04/15 02:40:29;;;;;;;15.33;9.27;;;;;;;0.04;100.00;99315.77;3710460;79;44216;-21
2021/04/15 02:45:40;;;;;;;15.93;9.23;;;;;;;0.04;100.00;99314.92;3774632;78;44035;-21
2021/04/15 02:50:47;;;;;;;13.63;8.17;;;;;;;0.05;100.00;99316.64;3776426;78;42785;-21
2021/04/15 02:55:55;;;;;;;13.17;8.63;;;;;;;0.06;100.00;99318.37;3709947;78;43384;-20
2021/04/15 03:01:02;;;;;;;19.20;8.97;;;;;;;0.04;100.00;99310.95;3639109;81;43375;-20
2021/04/15 03:06:11;;;;;;;14.23;8.43;;;;;;;0.03;100.00;99313.20;3647778;81;43318;-21
2021/04/15 03:11:21;;;;;;;14.43;9.00;;;;;;;0.00;100.00;99315.54;3653892;81;44140;-20
2021/04/15 03:16:30;;;;;;;16.97;9.80;;;;;;;-0.02;100.00;99317.40;3713184;78;43401;-20
2021/04/15 03:21:39;;;;;;;16.30;10.00;;;;;;;-0.03;100.00;99317.00;3647920;81;43989;-20
2021/04/15 03:26:49;;;;;;;14.73;9.50;;;;;;;-0.01;100.00;99321.29;3714750;78;44256;-20
2021/04/15 03:32:04;;;;;;;19.60;10.97;;;;;;;0.03;100.00;99319.83;3644395;80;44057;-20
2021/04/15 03:37:13;;;;;;;20.30;10.17;;;;;;;0.03;100.00;99320.67;3712330;79;43232;-21
2021/04/15 03:42:25;;;;;;;15.70;9.20;;;;;;;0.02;100.00;99313.65;3637344;81;43714;-21
2021/04/15 03:47:34;;;;;;;15.80;9.20;;;;;;;0.02;100.00;99332.20;3713249;79;43715;-21
2021/04/15 03:52:44;;;;;;;16.83;10.13;;;;;;;0.02;100.00;99332.67;3652517;81;43387;-21
2021/04/15 03:57:52;;;;;;;15.70;9.47;;;;;;;0.02;100.00;99334.00;3646728;80;44108;-21
2021/04/15 04:03:02;;;;;;;17.83;9.37;;;;;;;0.02;100.00;99332.67;3645877;80;44074;-21
2021/04/15 04:08:12;;;;;;;16.60;9.37;;;;;;;0.01;100.00;99334.93;3711972;79;44226;-21
2021/04/15 04:13:27;;;;;;;18.07;9.97;;;;;;;-0.01;100.00;99332.36;3640979;81;43442;-21
2021/04/15 04:18:41;;;;;;;15.90;9.63;;;;;;;-0.01;100.00;99337.18;3688332;78;44527;-20
2021/04/15 04:23:50;;;;;;;15.90;9.73;;;;;;;-0.05;100.00;99344.87;3644656;80;44107;-20
2021/04/15 04:29:08;;;;;;;18.33;10.57;;;;;;;-0.09;100.00;99345.96;3739737;78;43549;-21
2021/04/15 04:34:17;;;;;;;19.60;10.27;;;;;;;-0.12;100.00;99346.09;3751398;77;43544;-21
2021/04/15 04:39:25;;;;;;;17.00;9.53;;;;;;;-0.14;100.00;99351.92;3677102;80;44034;-21
2021/04/15 04:44:35;;;;;;;15.53;9.70;;;;;;;-0.19;100.00;99350.81;3752588;78;44087;-21
2021/04/15 04:49:44;;;;;;;18.70;10.30;;;;;;;-0.21;100.00;99357.12;3689435;80;44172;-21
2021/04/15 04:54:50;;;;;;;16.33;9.97;;;;;;;-0.21;100.00;99353.98;3746671;78;43364;-21
2021/04/15 05:00:00;;;;;;;18.83;10.90;;;;;;;-0.17;100.00;99365.30;3686898;80;44014;-21
2021/04/15 05:05:10;;;;;;;16.60;10.10;;;;;;;-0.16;100.00;99373.19;3732151;78;43385;-21
2021/04/15 05:10:20;;;;;;;17.93;11.50;;;;;;;-0.11;100.00;99380.92;3636689;81;43410;-21
2021/04/15 05:15:27;;;;;;;17.00;10.10;;;;;;;-0.09;100.00;99389.67;3743439;78;44070;-21
2021/04/15 05:20:33;;;;;;;18.20;11.70;;;;;;;-0.09;100.00;99383.05;3710517;80;43358;-21
2021/04/15 05:25:42;;;;;;;18.00;10.00;;;;;;;-0.11;100.00;99386.22;3709983;80;43318;-20
2021/04/15 05:30:52;;;;;;;16.63;9.67;;;;;;;-0.13;100.00;99385.43;3645750;81;43340;-20
2021/04/15 05:36:01;;;;;;;18.07;10.97;;;;;;;-0.09;100.00;99384.81;3706067;78;43724;-21
2021/04/15 05:41:10;;;;;;;19.57;11.00;;;;;;;-0.04;100.00;99392.11;3700086;78;43541;-20
2021/04/15 05:46:19;;;;;;;18.07;11.47;;;;;;;-0.01;100.00;99392.82;3643886;80;43401;-20
2021/04/15 05:51:28;;;;;;;22.10;11.33;;;;;;;0.08;100.00;99397.29;3723059;79;43949;-21
2021/04/15 05:56:38;;;;;;;17.70;10.97;;;;;;;0.09;100.00;99395.03;3733105;79;44003;-21
2021/04/15 06:01:48;;;;;;;20.57;10.97;;;;;;;0.15;100.00;99386.82;3721395;79;43195;-20
2021/04/15 06:06:54;;;;;;;21.30;11.53;;;;;;;0.23;100.00;99393.09;3727409;79;44222;-20
2021/04/15 06:12:04;;;;;;;19.70;11.10;;;;;;;0.26;100.00;99397.78;3720329;77;43991;-20
2021/04/15 06:17:33;;;;;;;19.73;11.93;;;;;;;0.26;100.00;99400.43;3720603;79;43052;-20
2021/04/15 06:22:43;;;;;;;23.10;11.87;;;;;;;0.31;100.00;99398.89;3702072;79;44064;-20
2021/04/15 06:27:51;;;;;;;23.57;12.57;;;;;;;0.38;100.00;99392.35;3764535;79;43686;-20
2021/04/15 06:32:59;;;;;;;20.27;11.63;;;;;;;0.47;100.00;99400.82;3759932;79;44040;-21
2021/04/15 06:38:10;;;;;;;18.40;11.23;;;;;;;0.58;100.00;99395.38;3742992;79;43411;-21
2021/04/15 06:43:27;;;;;;;16.47;10.70;;;;;;;0.68;100.00;99394.92;3743121;77;45268;-21
2021/04/15 06:48:49;;;;;;;16.63;10.03;;;;;;;0.78;100.00;99390.89;3742782;78;44051;-21
2021/04/15 06:54:05;;;;;;;15.70;9.57;;;;;;;0.95;100.00;99391.86;3740076;79;44513;-21
2021/04/15 06:59:42;;;;;;;14.30;9.37;;;;;;;1.12;100.00;99387.88;3740106;79;43718;-21
2021/04/15 07:04:51;;;;;;;14.50;8.40;;;;;;;1.27;100.00;99394.23;3730076;79;43968;-21
2021/04/15 07:10:36;;;;;;;7.70;5.33;;;;;;;1.47;100.00;99394.99;3748717;77;43399;-19
2021/04/15 07:16:18;;;;;;;8.93;5.43;;;;;;;1.75;100.00;99389.09;3734957;77;44058;-21
2021/04/15 07:21:37;;;;;;;6.97;4.43;;;;;;;2.20;100.00;99391.14;3702569;77;43319;-21
2021/04/15 07:26:57;;;;;;;5.37;3.77;;;;;;;2.41;100.00;99390.44;3761817;77;44081;-24
2021/04/15 07:32:19;;;;;;;5.80;4.30;;;;;;;2.60;100.00;99392.92;3758180;77;44060;-21
2021/04/15 07:37:39;;;;;;;6.47;5.13;;;;;;;2.59;100.00;99396.53;3765604;77;44040;-23
2021/04/15 07:42:54;;;;;;;6.20;4.47;;;;;;;2.80;100.00;99399.78;3759136;77;43648;-22
2021/04/15 07:48:43;;;;;;;4.57;3.50;;;;;;;3.00;100.00;99399.94;3773212;77;44010;-22
2021/04/15 07:54:18;;;;;;;6.03;3.67;;;;;;;3.01;100.00;99407.47;3774504;77;43526;-23
2021/04/15 07:59:46;;;;;;;7.33;4.30;;;;;;;3.17;100.00;99402.98;3711617;78;43262;-23
2021/04/15 08:05:21;;;;;;;7.30;4.40;;;;;;;3.37;100.00;99408.44;3761553;78;43340;-23
2021/04/15 08:11:09;;;;;;;6.97;3.93;;;;;;;3.49;100.00;99420.64;3763889;78;43711;-23
2021/04/15 08:16:35;;;;;;;5.87;3.20;;;;;;;3.68;100.00;99412.41;3761326;78;44053;-24
2021/04/15 08:21:45;;;;;;;6.00;3.20;;;;;;;3.76;100.00;99424.81;3759865;78;42808;-24
2021/04/15 08:27:27;;;;;;;4.40;3.20;;;;;;;3.79;96.90;99424.60;3719373;78;42749;-21
2021/04/15 08:32:36;;;;;;;5.30;3.13;;;;;;;3.81;93.78;99425.86;3644660;80;43677;-23
2021/04/15 08:37:53;;;;;;;3.17;2.40;;;;;;;3.96;95.27;99418.23;3713411;78;43917;-22
2021/04/15 08:43:07;;;;;;;5.30;2.83;;;;;;;4.16;86.01;99425.01;3700535;79;44080;-24
2021/04/15 08:48:33;;;;;;;4.83;2.67;;;;;;;4.41;85.14;99405.28;3720158;78;44053;-23
2021/04/15 08:53:59;;;;;;;4.47;3.00;;;;;;;4.22;82.84;99410.92;3724749;78;43259;-22
2021/04/15 08:59:27;;;;;;;4.80;2.53;;;;;;;4.45;82.94;99420.13;3792103;77;43470;-22
2021/04/15 09:04:45;;;;;;;4.77;2.60;;;;;;;4.58;82.72;99405.53;3792653;77;44241;-23
2021/04/15 09:09:59;;;;;;;4.30;2.70;;;;;;;4.44;77.37;99413.07;3792565;77;43952;-23
2021/04/15 09:15:15;;;;;;;4.53;2.20;;;;;;;4.54;79.22;99410.19;3704597;79;43444;-23
2021/04/15 09:20:31;;;;;;;3.53;2.20;;;;;;;4.75;74.29;99404.44;3790507;77;43909;-23
2021/04/15 09:25:41;;;;;;;6.17;2.30;;;;;;;4.84;74.03;99398.49;3791859;77;44946;-23
2021/04/15 09:30:55;;;;;;;4.20;2.27;;;;;;;5.37;71.90;99397.67;3793223;77;43479;-22
2021/04/15 09:36:07;;;;;;;4.13;2.20;;;;;;;5.57;71.42;99405.67;3792511;77;43417;-22
2021/04/15 09:42:02;;;;;;;3.57;2.20;;;;;;;5.15;67.21;99397.78;3792465;77;43429;-22
2021/04/15 09:47:14;;;;;;;2.03;1.70;;;;;;;5.13;72.69;99391.69;3767238;77;43058;-22
2021/04/15 09:52:46;;;;;;;3.20;1.90;;;;;;;5.70;66.96;99382.98;3771296;77;44018;-23
2021/04/15 09:57:56;;;;;;;2.43;1.87;;;;;;;5.73;60.77;99391.26;3772266;77;42896;-24
2021/04/15 10:03:21;;;;;;;4.33;2.10;;;;;;;5.62;59.57;99394.66;3772683;77;43439;-23
2021/04/15 10:08:34;;;;;;;1.53;1.30;;;;;;;5.60;67.21;99376.06;3774612;77;44041;-23
2021/04/15 10:13:53;;;;;;;2.33;1.30;;;;;;;5.69;62.06;99373.24;3772623;77;43391;-22
2021/04/15 10:19:07;;;;;;;1.50;1.40;;;;;;;5.72;56.22;99383.70;3804651;77;42905;-23
2021/04/15 10:24:24;;;;;;;2.80;1.50;;;;;;;5.82;57.52;99369.22;3765043;77;43274;-24
2021/04/15 10:29:39;;;;;;;2.40;1.60;;;;;;;6.39;61.71;99362.54;3774033;77;45563;-23
2021/04/15 10:35:16;;;;;;;1.60;1.37;;;;;;;6.07;52.29;99367.52;3713771;78;44070;-23
2021/04/15 10:40:53;;;;;;;1.83;1.57;;;;;;;5.93;50.33;99368.48;3696857;79;42987;-23
2021/04/15 10:46:32;;;;;;;1.80;1.47;;;;;;;6.22;54.24;99353.05;3771866;77;43411;-23
2021/04/15 10:51:42;;;;;;;1.80;1.60;;;;;;;6.25;53.96;99351.97;3772220;77;43694;-23
2021/04/15 10:56:50;;;;;;;3.53;1.53;;;;;;;6.10;51.48;99356.11;3769597;77;43297;-23
2021/04/15 11:02:22;;;;;;;1.97;1.40;;;;;;;6.20;51.86;99357.66;3713820;78;44047;-23
2021/04/15 11:07:31;;;;;;;2.00;1.60;;;;;;;6.15;50.27;99354.44;3702150;79;43681;-23
2021/04/15 11:12:38;;;;;;;4.13;1.60;;;;;;;5.79;50.61;99370.77;3703533;79;43338;-23
2021/04/15 11:17:45;;;;;;;2.63;1.70;;;;;;;6.03;51.00;99342.81;3772967;77;43669;-23
2021/04/15 11:23:04;;;;;;;3.43;1.60;;;;;;;6.32;54.11;99342.05;3772761;77;44228;-23
2021/04/15 11:28:14;;;;;;;3.23;1.60;;;;;;;6.44;52.01;99346.98;3772280;77;44009;-23
2021/04/15 11:33:40;;;;;;;2.53;1.60;;;;;;;6.33;51.58;99340.22;3770666;77;44072;-23
2021/04/15 11:38:50;;;;;;;1.70;1.40;;;;;;;6.79;51.29;99324.77;3772440;77;43443;-23
2021/04/15 11:44:07;;;;;;;1.70;1.50;;;;;;;6.16;49.26;99327.59;3774123;77;43995;-23
2021/04/15 11:49:17;;;;;;;2.73;1.80;;;;;;;6.66;53.39;99327.99;3770718;77;43029;-23
2021/04/15 11:54:31;;;;;;;2.17;1.40;;;;;;;6.63;53.88;99317.53;3768648;77;43735;-23
2021/04/15 11:59:38;;;;;;;3.47;1.70;;;;;;;6.56;48.40;99315.79;3750525;78;43370;-23
2021/04/15 12:04:46;;;;;;;3.30;1.83;;;;;;;6.42;49.79;99320.80;3768731;77;44135;-23
2021/04/15 12:09:52;;;;;;;2.67;1.53;;;;;;;6.31;53.51;99324.75;3815117;77;44833;-23
2021/04/15 12:15:00;;;;;;;2.40;1.73;;;;;;;5.90;51.12;99330.74;3703867;79;42898;-23
2021/04/15 12:20:10;;;;;;;2.77;1.90;;;;;;;5.68;51.43;99323.41;3768092;77;44112;-24
2021/04/15 12:25:19;;;;;;;2.80;1.60;;;;;;;5.78;50.51;99318.24;3714421;78;43516;-22
2021/04/15 12:30:28;;;;;;;1.80;1.20;;;;;;;6.34;50.65;99331.22;3700376;79;44046;-23
2021/04/15 12:35:39;;;;;;;2.50;1.57;;;;;;;6.10;49.47;99317.31;3768968;77;43678;-24
2021/04/15 12:40:47;;;;;;;2.87;1.83;;;;;;;6.19;52.62;99329.19;3764601;77;43305;-23
2021/04/15 12:45:58;;;;;;;2.47;1.50;;;;;;;6.02;52.18;99330.40;3704458;79;43467;-23
2021/04/15 12:51:06;;;;;;;1.53;1.43;;;;;;;6.14;51.95;99321.49;3764463;77;44029;-24
2021/04/15 12:56:16;;;;;;;2.20;1.50;;;;;;;6.25;49.92;99318.52;3640203;80;44543;-23
2021/04/15 13:01:22;;;;;;;2.10;1.73;;;;;;;6.51;51.15;99315.77;3752981;77;43712;-24
2021/04/15 13:06:30;;;;;;;2.67;1.80;;;;;;;6.34;49.54;99327.21;3757285;77;44067;-24
2021/04/15 13:11:39;;;;;;;2.47;1.67;;;;;;;6.37;53.00;99314.08;3749610;77;73374;-24
2021/04/15 13:16:51;;;;;;;2.63;1.90;;;;;;;5.78;51.44;99320.45;3753720;77;44829;-23
2021/04/15 13:22:03;;;;;;;4.43;2.00;;;;;;;5.74;53.95;99322.95;3752625;77;43299;-23
2021/04/15 13:27:43;;;;;;;2.93;1.90;;;;;;;5.59;58.57;99326.23;3753104;77;44168;-24
2021/04/15 13:33:10;;;;;;;2.33;1.80;;;;;;;5.80;59.77;99318.53;3751708;77;43960;-24
2021/04/15 13:38:40;;;;;;;1.70;1.40;;;;;;;6.23;56.18;99298.57;3751149;77;44097;-23
2021/04/15 13:43:50;;;;;;;2.00;1.40;;;;;;;6.22;52.74;99298.20;3754085;77;44158;-23
2021/04/15 13:48:58;;;;;;;3.20;1.80;;;;;;;6.30;52.28;99297.14;3750161;77;43291;-23
2021/04/15 13:54:28;;;;;;;2.83;1.80;;;;;;;6.12;52.03;99310.51;3749795;77;43690;-23
2021/04/15 13:59:55;;;;;;;3.77;1.83;;;;;;;5.80;52.93;99293.13;3749799;77;44269;-23
2021/04/15 14:05:03;;;;;;;2.10;1.63;;;;;;;5.52;55.86;99284.37;3791821;77;43719;-23
2021/04/15 14:10:29;;;;;;;1.90;1.60;;;;;;;5.85;56.22;99286.95;3761626;77;43726;-23
2021/04/15 14:15:40;;;;;;;2.97;1.57;;;;;;;5.81;60.20;99286.81;3760489;77;43673;-24
2021/04/15 14:20:48;;;;;;;2.43;1.50;;;;;;;5.60;61.29;99292.31;3755139;77;43707;-22
2021/04/15 14:25:57;;;;;;;2.00;1.50;;;;;;;5.85;63.33;99292.30;3761243;77;44025;-22
2021/04/15 14:31:19;;;;;;;2.73;1.77;;;;;;;5.40;57.63;99293.25;3679583;79;43442;-24
2021/04/15 14:36:27;;;;;;;4.47;1.40;;;;;;;5.23;60.95;99286.40;3757594;77;43694;-22
2021/04/15 14:41:34;;;;;;;2.13;1.70;;;;;;;5.34;60.23;99280.33;3756951;77;44069;-22
2021/04/15 14:46:41;;;;;;;2.07;1.20;;;;;;;5.46;62.22;99284.81;3757379;77;44017;-22
2021/04/15 14:51:48;;;;;;;2.30;1.30;;;;;;;5.44;58.76;99285.40;3775777;77;42995;-22
2021/04/15 14:56:56;;;;;;;1.73;1.27;;;;;;;5.60;58.67;99285.17;3770739;77;43481;-22
2021/04/15 15:02:15;;;;;;;2.10;1.17;;;;;;;5.40;57.40;99290.11;3681066;79;43999;-22
2021/04/15 15:07:21;;;;;;;1.80;1.33;;;;;;;5.25;61.57;99285.33;3775491;77;43460;-24
2021/04/15 15:12:30;;;;;;;3.80;1.53;;;;;;;5.13;65.20;99289.33;3771169;77;43712;-23
2021/04/15 15:17:37;;;;;;;1.67;1.30;;;;;;;5.15;70.07;99287.41;3773446;77;43364;-23
2021/04/15 15:22:44;;;;;;;2.90;1.30;;;;;;;5.11;68.36;99284.57;3708054;78;44475;-22
2021/04/15 15:27:53;;;;;;;4.30;1.40;;;;;;;5.42;63.47;99281.97;3751265;78;43348;-23
2021/04/15 15:33:14;;;;;;;1.53;1.03;;;;;;;5.44;60.87;99276.05;3641911;80;42975;-23
2021/04/15 15:38:24;;;;;;;2.20;0.90;;;;;;;5.36;58.76;99271.70;3644553;80;43739;-23
2021/04/15 15:43:32;;;;;;;1.53;1.10;;;;;;;5.46;59.87;99277.27;3763097;78;44739;-23
2021/04/15 15:48:51;;;;;;;1.77;1.00;;;;;;;5.10;66.23;99289.08;3726927;78;44846;-25
2021/04/15 15:53:58;;;;;;;2.03;1.10;;;;;;;4.77;70.67;99281.91;3719638;78;44681;-22
2021/04/15 15:59:18;;;;;;;2.80;2.13;;;;;;;4.94;70.13;99268.74;3822602;77;44634;-22
2021/04/15 16:04:24;;;;;;;2.20;1.30;;;;;;;5.26;69.07;99268.83;3791675;77;43752;-22
2021/04/15 16:09:30;;;;;;;1.47;1.10;;;;;;;5.30;69.22;99264.13;3797429;77;43476;-22
2021/04/15 16:14:42;;;;;;;1.93;1.20;;;;;;;5.16;69.32;99261.08;3791554;77;44042;-22
2021/04/15 16:19:48;;;;;;;3.83;1.97;;;;;;;4.92;67.43;99267.98;3703292;79;44062;-22
2021/04/15 16:24:55;;;;;;;2.23;1.10;;;;;;;4.91;70.98;99259.59;3791028;77;43075;-23
2021/04/15 16:30:01;;;;;;;2.10;1.23;;;;;;;4.62;71.05;99267.77;3792779;77;44492;-22
2021/04/15 16:35:10;;;;;;;2.07;1.27;;;;;;;4.24;81.63;99278.28;3791561;77;44108;-22
2021/04/15 16:40:16;;;;;;;1.30;1.20;;;;;;;3.75;91.23;99270.30;3790970;77;43492;-23
2021/04/15 16:45:23;;;;;;;1.20;1.10;;;;;;;3.91;88.41;99266.17;3787986;77;44180;-22
2021/04/15 16:50:31;;;;;;;2.80;1.40;;;;;;;3.94;86.82;99281.48;3795798;77;44088;-23
2021/04/15 16:55:37;;;;;;;2.03;1.37;;;;;;;3.78;92.00;99278.11;3770732;77;44033;-23
2021/04/15 17:00:46;;;;;;;2.80;1.80;;;;;;;3.60;100.00;99284.95;3763447;77;43674;-23
2021/04/15 17:05:52;;;;;;;1.70;1.50;;;;;;;3.40;100.00;99288.88;3762168;77;44006;-23
2021/04/15 17:10:59;;;;;;;2.23;1.60;;;;;;;3.18;100.00;99289.32;3759555;77;43025;-23
2021/04/15 17:16:06;;;;;;;3.20;1.70;;;;;;;2.87;100.00;99299.98;3763591;77;44028;-23
2021/04/15 17:21:13;;;;;;;4.40;2.23;;;;;;;2.62;100.00;99292.60;3761340;77;44064;-23
2021/04/15 17:26:20;;;;;;;3.17;2.23;;;;;;;2.52;100.00;99291.42;3637015;80;43343;-23
2021/04/15 17:31:28;;;;;;;3.27;1.80;;;;;;;2.55;100.00;99296.55;3752539;77;44022;-23
2021/04/15 17:36:36;;;;;;;2.90;2.13;;;;;;;2.51;100.00;99288.38;3750098;77;43769;-23
2021/04/15 17:41:42;;;;;;;2.57;1.90;;;;;;;2.51;100.00;99286.56;3753812;77;43687;-24
2021/04/15 17:46:48;;;;;;;2.77;2.00;;;;;;;2.56;100.00;99288.95;3752072;77;43402;-22
2021/04/15 17:51:55;;;;;;;5.33;2.70;;;;;;;2.61;100.00;99286.89;3785934;77;43388;-22
2021/04/15 17:57:05;;;;;;;2.87;1.70;;;;;;;2.70;100.00;99290.34;3766171;77;43682;-22
2021/04/15 18:02:12;;;;;;;3.30;2.33;;;;;;;2.73;100.00;99288.84;3777207;77;44038;-21
2021/04/15 18:07:18;;;;;;;3.07;2.30;;;;;;;2.71;100.00;99283.20;3787266;77;43342;-21
2021/04/15 18:12:25;;;;;;;2.60;2.20;;;;;;;2.58;100.00;99292.38;3757234;77;43718;-22
2021/04/15 18:17:31;;;;;;;2.57;2.20;;;;;;;2.46;100.00;99293.48;3756374;77;43712;-22
2021/04/15 18:22:39;;;;;;;3.03;2.53;;;;;;;2.34;100.00;99302.16;3756104;77;44358;-21
2021/04/15 18:27:46;;;;;;;3.83;2.90;;;;;;;2.19;100.00;99309.66;3755297;77;44037;-22
2021/04/15 18:32:52;;;;;;;3.80;2.73;;;;;;;2.04;100.00;99306.94;3754421;77;44125;-21
2021/04/15 18:38:00;;;;;;;4.50;2.80;;;;;;;1.90;100.00;99307.69;3751893;77;43758;-22
2021/04/15 18:43:06;;;;;;;3.90;3.00;;;;;;;1.88;100.00;99310.05;3756687;77;43342;-20
2021/04/15 18:48:16;;;;;;;4.47;2.90;;;;;;;1.83;100.00;99305.83;3757393;77;44484;-20
2021/04/15 18:53:23;;;;;;;5.17;3.40;;;;;;;1.82;100.00;99307.25;3760085;77;43974;-20
2021/04/15 18:58:31;;;;;;;4.27;3.13;;;;;;;1.76;100.00;99304.95;3753377;77;44479;-21
2021/04/15 19:03:41;;;;;;;4.57;3.30;;;;;;;1.77;100.00;99310.16;3752475;77;44015;-20
2021/04/15 19:08:47;;;;;;;4.60;3.57;;;;;;;1.78;100.00;99312.34;3752770;77;43729;-20
2021/04/15 19:13:54;;;;;;;5.10;3.27;;;;;;;1.82;100.00;99317.88;3751537;77;43444;-20
2021/04/15 19:19:01;;;;;;;4.30;3.47;;;;;;;1.84;100.00;99318.17;3756360;77;43451;-21
2021/04/15 19:24:10;;;;;;;3.93;3.13;;;;;;;1.80;100.00;99319.76;3748088;77;43396;-20
2021/04/15 19:29:16;;;;;;;3.63;3.13;;;;;;;1.82;100.00;99317.39;3751091;77;41092;-21
2021/04/15 19:34:22;;;;;;;4.67;3.37;;;;;;;1.85;100.00;99315.91;3749163;77;42846;-29
2021/04/15 19:39:28;;;;;;;5.37;3.60;;;;;;;1.91;100.00;99309.88;3754262;77;44335;-27
2021/04/15 19:44:35;;;;;;;4.03;3.30;;;;;;;1.93;100.00;99304.02;3778048;77;43686;-26
2021/04/15 19:49:42;;;;;;;4.07;3.30;;;;;;;1.90;100.00;99297.53;3778184;77;43443;-26
2021/04/15 19:54:48;;;;;;;5.23;3.37;;;;;;;1.87;100.00;99293.71;3759512;77;43124;-26
2021/04/15 19:59:54;;;;;;;4.10;3.50;;;;;;;1.89;100.00;99289.17;3761482;77;44083;-27
2021/04/15 20:05:00;;;;;;;6.00;3.87;;;;;;;1.88;100.00;99288.33;3758562;77;43317;-27
2021/04/15 20:10:10;;;;;;;6.83;3.67;;;;;;;1.94;100.00;99282.66;3763112;77;43037;-27
2021/04/15 20:15:17;;;;;;;4.53;3.43;;;;;;;1.92;100.00;99279.71;3757253;77;43368;-27
2021/04/15 20:20:24;;;;;;;4.43;3.30;;;;;;;1.91;100.00;99281.50;3757172;77;43342;-26
2021/04/15 20:25:31;;;;;;;4.43;3.33;;;;;;;1.91;100.00;99273.52;3753746;77;43247;-27
2021/04/15 20:30:39;;;;;;;4.63;3.07;;;;;;;1.89;100.00;99269.25;3756101;77;44052;-27
2021/04/15 20:35:46;;;;;;;4.83;3.40;;;;;;;1.96;100.00;99263.96;3754862;77;43011;-27
2021/04/15 20:40:53;;;;;;;4.40;3.40;;;;;;;1.91;100.00;99264.70;3751114;77;44072;-27
2021/04/15 20:46:00;;;;;;;3.93;3.20;;;;;;;1.91;100.00;99260.72;3754209;77;43348;-26
2021/04/15 20:51:07;;;;;;;3.87;3.10;;;;;;;1.91;100.00;99252.75;3754598;77;44062;-26
2021/04/15 20:56:14;;;;;;;3.83;2.73;;;;;;;1.83;100.00;99249.19;3779219;77;43673;-27
2021/04/15 21:01:20;;;;;;;4.93;3.17;;;;;;;1.85;100.00;99246.82;3771668;77;43287;-26
2021/04/15 21:06:26;;;;;;;4.20;3.37;;;;;;;1.85;100.00;99239.34;3770726;77;44118;-27
2021/04/15 21:11:48;;;;;;;3.37;2.83;;;;;;;1.80;100.00;99236.06;3772537;77;43684;-26
2021/04/15 21:16:55;;;;;;;4.30;3.17;;;;;;;1.79;100.00;99237.00;3772268;77;44110;-26
2021/04/15 21:22:01;;;;;;;5.80;3.47;;;;;;;1.83;100.00;99230.59;3772333;77;43467;-26
2021/04/15 21:27:08;;;;;;;4.37;3.07;;;;;;;1.78;100.00;99224.66;3771968;77;43425;-26
2021/04/15 21:32:14;;;;;;;4.03;3.20;;;;;;;1.74;100.00;99226.64;3767708;77;43706;-26
2021/04/15 21:37:20;;;;;;;4.30;3.20;;;;;;;1.69;100.00;99222.06;3772816;77;43010;-26
2021/04/15 21:42:26;;;;;;;7.33;3.50;;;;;;;1.69;100.00;99224.23;3808538;77;43758;-26
2021/04/15 21:47:32;;;;;;;4.53;3.37;;;;;;;1.65;100.00;99213.39;3719229;78;44048;-26
2021/04/15 21:52:38;;;;;;;5.03;3.13;;;;;;;1.72;100.00;99215.23;3698981;79;42814;-26
2021/04/15 21:57:45;;;;;;;5.33;3.73;;;;;;;1.68;100.00;99211.05;3773663;77;43586;-26
2021/04/15 22:02:51;;;;;;;5.83;3.30;;;;;;;1.68;100.00;99207.91;3769184;77;44001;-27
2021/04/15 22:08:00;;;;;;;5.07;3.73;;;;;;;1.74;100.00;99205.87;3681700;79;44031;-26
2021/04/15 22:13:06;;;;;;;6.07;3.40;;;;;;;1.76;100.00;99196.86;3766922;77;43689;-26
2021/04/15 22:18:15;;;;;;;4.30;3.30;;;;;;;1.72;100.00;99204.61;3722354;78;43994;-26
2021/04/15 22:23:24;;;;;;;5.07;3.40;;;;;;;1.67;100.00;99195.56;3698410;79;44189;-26
2021/04/15 22:28:31;;;;;;;5.17;3.87;;;;;;;1.74;100.00;99198.73;3770472;77;44046;-26
2021/04/15 22:33:36;;;;;;;5.20;3.43;;;;;;;1.74;100.00;99192.09;3772368;77;43713;-26
2021/04/15 22:38:43;;;;;;;4.63;3.10;;;;;;;1.68;100.00;99192.45;3741652;78;44102;-26
2021/04/15 22:43:49;;;;;;;4.90;3.40;;;;;;;1.75;100.00;99188.50;3740868;78;44033;-26
2021/04/15 22:48:55;;;;;;;5.17;3.30;;;;;;;1.68;100.00;99197.77;3735255;78;43327;-26
2021/04/15 22:54:02;;;;;;;4.77;3.20;;;;;;;1.71;100.00;99190.09;3739564;78;43089;-26
2021/04/15 22:59:08;;;;;;;4.47;3.20;;;;;;;1.80;100.00;99189.56;3754643;77;43254;-27
2021/04/15 23:04:14;;;;;;;4.60;2.57;;;;;;;1.80;100.00;99185.58;3754202;77;44853;-26
2021/04/15 23:09:20;;;;;;;2.67;1.90;;;;;;;1.79;100.00;99183.41;3753383;77;44608;-27
2021/04/15 23:14:26;;;;;;;4.20;1.87;;;;;;;1.93;100.00;99178.63;3752513;77;43475;-27
2021/04/15 23:19:31;;;;;;;2.20;1.57;;;;;;;1.94;100.00;99185.66;3753214;77;43996;-26
2021/04/15 23:24:37;;;;;;;2.50;1.50;;;;;;;1.89;100.00;99188.20;3753948;77;44296;-26
2021/04/15 23:29:42;;;;;;;1.70;1.10;;;;;;;1.84;100.00;99187.98;3751970;77;43697;-27
2021/04/15 23:34:48;;;;;;;1.93;1.60;;;;;;;1.82;100.00;99181.89;3746490;77;44202;-26
2021/04/15 23:39:54;;;;;;;0.80;0.80;;;;;;;1.76;100.00;99182.73;3771808;77;43776;-26
2021/04/15 23:45:01;;;;;;;1.37;1.13;;;;;;;1.66;100.00;99173.09;3829891;77;44622;-27
2021/04/15 23:50:09;;;;;;;1.17;0.90;;;;;;;1.67;100.00;99166.84;3827231;77;44042;-26
2021/04/15 23:55:16;;;;;;;1.70;1.00;;;;;;;1.49;100.00;99176.20;3810578;77;44066;-26
